Home > Products > Valid Products > TAF

000
FTUS43 KGRB 040520
TAFGRB
TAF
KGRB 040520Z 0406/0506 27004KT P6SM SCT090
     FM041500 31009KT P6SM BKN045 BKN080
     FM042200 05007KT P6SM SCT040 SCT080=



000
FTUS43 KGRB 040520
TAFGRB
TAF
KGRB 040520Z 0406/0506 27004KT P6SM SCT090
     FM041500 31009KT P6SM BKN045 BKN080
     FM042200 05007KT P6SM SCT040 SCT080=



000
FTUS43 KGRB 040520
TAFGRB
TAF
KGRB 040520Z 0406/0506 27004KT P6SM SCT090
     FM041500 31009KT P6SM BKN045 BKN080
     FM042200 05007KT P6SM SCT040 SCT080=



000
FTUS43 KGRB 040520
TAFGRB
TAF
KGRB 040520Z 0406/0506 27004KT P6SM SCT090
     FM041500 31009KT P6SM BKN045 BKN080
     FM042200 05007KT P6SM SCT040 SCT080=



000
FTUS43 KGRB 032325
TAFGRB
TAF
KGRB 032325Z 0400/0424 30007KT P6SM SCT060 BKN090
     FM040600 29004KT P6SM SCT090
     FM041500 30009KT P6SM BKN045
     FM042200 35005KT P6SM SCT040=



000
FTUS43 KGRB 032325
TAFGRB
TAF
KGRB 032325Z 0400/0424 30007KT P6SM SCT060 BKN090
     FM040600 29004KT P6SM SCT090
     FM041500 30009KT P6SM BKN045
     FM042200 35005KT P6SM SCT040=



000
FTUS43 KGRB 032325
TAFGRB
TAF
KGRB 032325Z 0400/0424 30007KT P6SM SCT060 BKN090
     FM040600 29004KT P6SM SCT090
     FM041500 30009KT P6SM BKN045
     FM042200 35005KT P6SM SCT040=



000
FTUS43 KGRB 032325
TAFGRB
TAF
KGRB 032325Z 0400/0424 30007KT P6SM SCT060 BKN090
     FM040600 29004KT P6SM SCT090
     FM041500 30009KT P6SM BKN045
     FM042200 35005KT P6SM SCT040=



000
FTUS43 KGRB 031720
TAFGRB
TAF
KGRB 031720Z 0318/0418 29010G16KT P6SM SCT070
     FM032200 32006KT P6SM BKN070
     FM040600 30004KT P6SM SKC
     FM041400 30006KT P6SM BKN050=



000
FTUS43 KGRB 031720
TAFGRB
TAF
KGRB 031720Z 0318/0418 29010G16KT P6SM SCT070
     FM032200 32006KT P6SM BKN070
     FM040600 30004KT P6SM SKC
     FM041400 30006KT P6SM BKN050=



000
FTUS43 KGRB 031120
TAFGRB
TAF
KGRB 031120Z 0312/0412 29006KT P6SM SCT070
     FM031500 29010G16KT P6SM SCT070
     FM032200 32006KT P6SM BKN070=



000
FTUS43 KGRB 031120
TAFGRB
TAF
KGRB 031120Z 0312/0412 29006KT P6SM SCT070
     FM031500 29010G16KT P6SM SCT070
     FM032200 32006KT P6SM BKN070=



000
FTUS43 KGRB 031120
TAFGRB
TAF
KGRB 031120Z 0312/0412 29006KT P6SM SCT070
     FM031500 29010G16KT P6SM SCT070
     FM032200 32006KT P6SM BKN070=



000
FTUS43 KGRB 030520
TAFGRB
TAF
KGRB 030520Z 0306/0406 29006KT P6SM SCT070
     FM031500 29010G16KT P6SM SCT070
     FM032200 32006KT P6SM BKN070=



000
FTUS43 KGRB 030520
TAFGRB
TAF
KGRB 030520Z 0306/0406 29006KT P6SM SCT070
     FM031500 29010G16KT P6SM SCT070
     FM032200 32006KT P6SM BKN070=



000
FTUS43 KGRB 030520
TAFGRB
TAF
KGRB 030520Z 0306/0406 29006KT P6SM SCT070
     FM031500 29010G16KT P6SM SCT070
     FM032200 32006KT P6SM BKN070=



000
FTUS43 KGRB 030520
TAFGRB
TAF
KGRB 030520Z 0306/0406 29006KT P6SM SCT070
     FM031500 29010G16KT P6SM SCT070
     FM032200 32006KT P6SM BKN070=



000
FTUS43 KGRB 022326
TAFGRB
TAF
KGRB 022326Z 0300/0324 35008KT P6SM SCT050 BKN090
     FM030200 34008KT P6SM FEW050 SCT090
     FM030600 30006KT P6SM SCT070
     FM031600 30010G16KT P6SM SCT070=



000
FTUS43 KGRB 022326
TAFGRB
TAF
KGRB 022326Z 0300/0324 35008KT P6SM SCT050 BKN090
     FM030200 34008KT P6SM FEW050 SCT090
     FM030600 30006KT P6SM SCT070
     FM031600 30010G16KT P6SM SCT070=



000
FTUS43 KGRB 022326
TAFGRB
TAF
KGRB 022326Z 0300/0324 35008KT P6SM SCT050 BKN090
     FM030200 34008KT P6SM FEW050 SCT090
     FM030600 30006KT P6SM SCT070
     FM031600 30010G16KT P6SM SCT070=



000
FTUS43 KGRB 022326
TAFGRB
TAF
KGRB 022326Z 0300/0324 35008KT P6SM SCT050 BKN090
     FM030200 34008KT P6SM FEW050 SCT090
     FM030600 30006KT P6SM SCT070
     FM031600 30010G16KT P6SM SCT070=



000
FTUS43 KGRB 021949 AAA
TAFGRB
TAF AMD
KGRB 021949Z 0220/0318 03012G25KT P6SM SCT035 BKN250
      TEMPO 0220/0222 3SM TSRA BR BKN035CB
     FM030100 34011G18KT P6SM SCT035
     FM030400 31007KT P6SM SCT035=



000
FTUS43 KGRB 021949 AAA
TAFGRB
TAF AMD
KGRB 021949Z 0220/0318 03012G25KT P6SM SCT035 BKN250
      TEMPO 0220/0222 3SM TSRA BR BKN035CB
     FM030100 34011G18KT P6SM SCT035
     FM030400 31007KT P6SM SCT035=



000
FTUS43 KGRB 021734
TAFGRB
TAF
KGRB 021734Z 0218/0318 22015G25KT P6SM SCT035 BKN250
     FM022200 25014G25KT P6SM SCT035
      TEMPO 0223/0301 3SM TSRA BR BKN035CB
     FM030100 34011G18KT P6SM SCT035
     FM030400 31007KT P6SM SCT035=



000
FTUS43 KGRB 021734
TAFGRB
TAF
KGRB 021734Z 0218/0318 22015G25KT P6SM SCT035 BKN250
     FM022200 25014G25KT P6SM SCT035
      TEMPO 0223/0301 3SM TSRA BR BKN035CB
     FM030100 34011G18KT P6SM SCT035
     FM030400 31007KT P6SM SCT035=



000
FTUS43 KGRB 021632 AAB
TAFGRB
TAF AMD
KGRB 021632Z 0217/0312 22015G25KT P6SM SCT035 BKN250
     FM022200 28010G17KT P6SM SCT040 BKN100
      TEMPO 0222/0224 3SM TSRA BR BKN035CB
     FM030000 34007KT P6SM SCT035=



000
FTUS43 KGRB 021632 AAB
TAFGRB
TAF AMD
KGRB 021632Z 0217/0312 22015G25KT P6SM SCT035 BKN250
     FM022200 28010G17KT P6SM SCT040 BKN100
      TEMPO 0222/0224 3SM TSRA BR BKN035CB
     FM030000 34007KT P6SM SCT035=



000
FTUS43 KGRB 021513 AAC
TAFGRB
TAF AMD
KGRB 021513Z 0215/0312 25010G20KT P6SM SCT035 BKN120
     FM021600 24010G20KT P6SM SCT035 BKN250
     FM022200 28010G17KT P6SM SCT040 BKN100
      TEMPO 0222/0224 3SM TSRA BR BKN035CB
     FM030000 34007KT P6SM SCT035=



000
FTUS43 KGRB 021513 AAC
TAFGRB
TAF AMD
KGRB 021513Z 0215/0312 25010G20KT P6SM SCT035 BKN120
     FM021600 24010G20KT P6SM SCT035 BKN250
     FM022200 28010G17KT P6SM SCT040 BKN100
      TEMPO 0222/0224 3SM TSRA BR BKN035CB
     FM030000 34007KT P6SM SCT035=



000
FTUS43 KGRB 021435 AAC
TAFGRB
TAF AMD
KGRB 021435Z 0215/0312 25010G20KT 5SM -TSRA SCT015 BKN035CB
     FM021600 24010G20KT P6SM SCT035 BKN250
     FM022200 28010G17KT P6SM SCT040 BKN100
      TEMPO 0222/0224 3SM TSRA BR BKN035CB
     FM030000 34007KT P6SM SCT035=



000
FTUS43 KGRB 021435 AAC
TAFGRB
TAF AMD
KGRB 021435Z 0215/0312 25010G20KT 5SM -TSRA SCT015 BKN035CB
     FM021600 24010G20KT P6SM SCT035 BKN250
     FM022200 28010G17KT P6SM SCT040 BKN100
      TEMPO 0222/0224 3SM TSRA BR BKN035CB
     FM030000 34007KT P6SM SCT035=



000
FTUS43 KGRB 021345 AAB
TAFGRB
TAF AMD
KGRB 021345Z 0214/0312 22009KT P6SM SCT040 BKN100
     FM021500 24009KT 5SM -TSRA BKN035CB
     FM021600 24010G20KT P6SM SCT035 BKN250
     FM022200 28010G17KT P6SM SCT040 BKN100
      TEMPO 0222/0224 3SM TSRA BR BKN035CB
     FM030000 34007KT P6SM SCT035=



000
FTUS43 KGRB 021345 AAB
TAFGRB
TAF AMD
KGRB 021345Z 0214/0312 22009KT P6SM SCT040 BKN100
     FM021500 24009KT 5SM -TSRA BKN035CB
     FM021600 24010G20KT P6SM SCT035 BKN250
     FM022200 28010G17KT P6SM SCT040 BKN100
      TEMPO 0222/0224 3SM TSRA BR BKN035CB
     FM030000 34007KT P6SM SCT035=



000
FTUS43 KGRB 021135
TAFGRB
TAF
KGRB 021135Z 0212/0312 21007KT P6SM VCSH SCT040 BKN100
     FM021500 24012G20KT P6SM SCT035 SCT100
     FM022200 28010G17KT P6SM SCT040 BKN100
      TEMPO 0222/0224 3SM TSRA BR BKN035CB
     FM030000 34007KT P6SM SCT035=



000
FTUS43 KGRB 021135
TAFGRB
TAF
KGRB 021135Z 0212/0312 21007KT P6SM VCSH SCT040 BKN100
     FM021500 24012G20KT P6SM SCT035 SCT100
     FM022200 28010G17KT P6SM SCT040 BKN100
      TEMPO 0222/0224 3SM TSRA BR BKN035CB
     FM030000 34007KT P6SM SCT035=



000
FTUS43 KGRB 021135
TAFGRB
TAF
KGRB 021135Z 0212/0312 21007KT P6SM VCSH SCT040 BKN100
     FM021500 24012G20KT P6SM SCT035 SCT100
     FM022200 28010G17KT P6SM SCT040 BKN100
      TEMPO 0222/0224 3SM TSRA BR BKN035CB
     FM030000 34007KT P6SM SCT035=



000
FTUS43 KGRB 021135
TAFGRB
TAF
KGRB 021135Z 0212/0312 21007KT P6SM VCSH SCT040 BKN100
     FM021500 24012G20KT P6SM SCT035 SCT100
     FM022200 28010G17KT P6SM SCT040 BKN100
      TEMPO 0222/0224 3SM TSRA BR BKN035CB
     FM030000 34007KT P6SM SCT035=



000
FTUS43 KGRB 021033 AAB
TAFGRB
TAF AMD
KGRB 021033Z 0211/0306 21007KT P6SM VCSH SCT040 BKN100
      TEMPO 0211/0212 4SM -TSRA BKN040CB
     FM021500 24012G20KT P6SM SCT035 SCT100
     FM022200 28010G17KT P6SM SCT040 BKN100
      TEMPO 0222/0224 3SM TSRA BR BKN035CB
     FM030000 34007KT P6SM SCT035=



000
FTUS43 KGRB 021033 AAB
TAFGRB
TAF AMD
KGRB 021033Z 0211/0306 21007KT P6SM VCSH SCT040 BKN100
      TEMPO 0211/0212 4SM -TSRA BKN040CB
     FM021500 24012G20KT P6SM SCT035 SCT100
     FM022200 28010G17KT P6SM SCT040 BKN100
      TEMPO 0222/0224 3SM TSRA BR BKN035CB
     FM030000 34007KT P6SM SCT035=



000
FTUS43 KGRB 020520
TAFGRB
TAF
KGRB 020520Z 0206/0306 22006KT P6SM SCT060 SCT120
     FM021000 21007KT P6SM VCSH SCT060 BKN100
     FM021500 24012G20KT P6SM SCT035 SCT100
     FM022200 28010G17KT P6SM SCT040 BKN100
      TEMPO 0222/0224 3SM TSRA BR BKN035CB
     FM030000 34007KT P6SM SCT035=



000
FTUS43 KGRB 020520
TAFGRB
TAF
KGRB 020520Z 0206/0306 22006KT P6SM SCT060 SCT120
     FM021000 21007KT P6SM VCSH SCT060 BKN100
     FM021500 24012G20KT P6SM SCT035 SCT100
     FM022200 28010G17KT P6SM SCT040 BKN100
      TEMPO 0222/0224 3SM TSRA BR BKN035CB
     FM030000 34007KT P6SM SCT035=



000
FTUS43 KGRB 012339
TAFGRB
TAF
KGRB 012339Z 0200/0224 24006KT P6SM SCT120
      TEMPO 0205/0209 BKN120
     FM021000 21007KT P6SM SCT060 OVC100
      TEMPO 0210/0214 5SM -TSRA BR BKN050CB
     FM021500 24012G20KT P6SM SCT035 SCT100
     FM022200 28010G17KT P6SM SCT040 BKN100
      TEMPO 0222/0224 3SM TSRA BR BKN035CB=



000
FTUS43 KGRB 012339
TAFGRB
TAF
KGRB 012339Z 0200/0224 24006KT P6SM SCT120
      TEMPO 0205/0209 BKN120
     FM021000 21007KT P6SM SCT060 OVC100
      TEMPO 0210/0214 5SM -TSRA BR BKN050CB
     FM021500 24012G20KT P6SM SCT035 SCT100
     FM022200 28010G17KT P6SM SCT040 BKN100
      TEMPO 0222/0224 3SM TSRA BR BKN035CB=



000
FTUS43 KGRB 012339
TAFGRB
TAF
KGRB 012339Z 0200/0224 24006KT P6SM SCT120
      TEMPO 0205/0209 BKN120
     FM021000 21007KT P6SM SCT060 OVC100
      TEMPO 0210/0214 5SM -TSRA BR BKN050CB
     FM021500 24012G20KT P6SM SCT035 SCT100
     FM022200 28010G17KT P6SM SCT040 BKN100
      TEMPO 0222/0224 3SM TSRA BR BKN035CB=



000
FTUS43 KGRB 012339
TAFGRB
TAF
KGRB 012339Z 0200/0224 24006KT P6SM SCT120
      TEMPO 0205/0209 BKN120
     FM021000 21007KT P6SM SCT060 OVC100
      TEMPO 0210/0214 5SM -TSRA BR BKN050CB
     FM021500 24012G20KT P6SM SCT035 SCT100
     FM022200 28010G17KT P6SM SCT040 BKN100
      TEMPO 0222/0224 3SM TSRA BR BKN035CB=



000
FTUS43 KGRB 011740
TAFGRB
TAF
KGRB 011740Z 0118/0218 28010G17KT P6SM SCT080
     FM020000 23004KT P6SM SCT120
      TEMPO 0204/0208 BKN120
     FM020800 22006KT P6SM SCT040 OVC120 WS010/24040KT PROB30
      0208/0212 5SM -SHRA BR BKN040=



000
FTUS43 KGRB 011740
TAFGRB
TAF
KGRB 011740Z 0118/0218 28010G17KT P6SM SCT080
     FM020000 23004KT P6SM SCT120
      TEMPO 0204/0208 BKN120
     FM020800 22006KT P6SM SCT040 OVC120 WS010/24040KT PROB30
      0208/0212 5SM -SHRA BR BKN040=



000
FTUS43 KGRB 011740
TAFGRB
TAF
KGRB 011740Z 0118/0218 28010G17KT P6SM SCT080
     FM020000 23004KT P6SM SCT120
      TEMPO 0204/0208 BKN120
     FM020800 22006KT P6SM SCT040 OVC120 WS010/24040KT PROB30
      0208/0212 5SM -SHRA BR BKN040=



000
FTUS43 KGRB 011138
TAFGRB
TAF
KGRB 011138Z 0112/0212 28005KT P6SM SCT080
     FM011500 28010G17KT P6SM SCT060
     FM020000 23004KT P6SM SCT120
      TEMPO 0204/0208 BKN120
     FM020800 22006KT P6SM SCT040 OVC120 WS010/24040KT PROB30
      0208/0212 5SM -SHRA BR BKN040=



000
FTUS43 KGRB 011138
TAFGRB
TAF
KGRB 011138Z 0112/0212 28005KT P6SM SCT080
     FM011500 28010G17KT P6SM SCT060
     FM020000 23004KT P6SM SCT120
      TEMPO 0204/0208 BKN120
     FM020800 22006KT P6SM SCT040 OVC120 WS010/24040KT PROB30
      0208/0212 5SM -SHRA BR BKN040=



000
FTUS43 KGRB 011138
TAFGRB
TAF
KGRB 011138Z 0112/0212 28005KT P6SM SCT080
     FM011500 28010G17KT P6SM SCT060
     FM020000 23004KT P6SM SCT120
      TEMPO 0204/0208 BKN120
     FM020800 22006KT P6SM SCT040 OVC120 WS010/24040KT PROB30
      0208/0212 5SM -SHRA BR BKN040=



000
FTUS43 KGRB 011138
TAFGRB
TAF
KGRB 011138Z 0112/0212 28005KT P6SM SCT080
     FM011500 28010G17KT P6SM SCT060
     FM020000 23004KT P6SM SCT120
      TEMPO 0204/0208 BKN120
     FM020800 22006KT P6SM SCT040 OVC120 WS010/24040KT PROB30
      0208/0212 5SM -SHRA BR BKN040=



    US Dept of Commerce
    National Oceanic and Atmospheric Administration
    National Weather Service
    1325 East West Highway
    Silver Spring, MD 20910
    Page Author: NWS Internet Services Team
Disclaimer
Information Quality
Credits
Glossary
Privacy Policy
Freedom of Information Act (FOIA)
About Us
Career Opportunities